Terminal Aerodrome Forecast
Issued by NWS

Home | Current Version | Previous Version | Text Only | Print | Product List | Glossary On
Versions: 1 2 3 4 5 6 7 8 9 10 11 12 13 14
000
FTUS42 KMLB 291727
TAFFPR
TAF
KFPR 291727Z 2918/3018 09010KT P6SM VCSH SCT025 SCT120 BKN250
     FM300000 11008KT P6SM VCSH SCT025 SCT080 BKN250
     FM300900 12008KT P6SM VCSH SCT020 BKN080
      TEMPO 3009/3013 3SM SHRA BKN020
     FM301300 13013G20KT P6SM SCT020 BKN035 OVC060
      TEMPO 3013/3017 2SM TSRA BKN025CB=

USA.gov is the U.S. government's official web portal to all federal, state and local government web resources and services.